Time;durP1;ratioP1;P1;durP2;ratioP2;P2;SDS_P1;SDS_P2;PMS_P1;PMS_P2;Temp;Humidity;BMP_temperature;BMP_pressure;BME280_temperature;BME280_humidity;BME280_pressure;Samples;Min_cycle;Max_cycle;Signal;HPM_P1;HPM_P2
2022/01/25 00:08:20;;;;;;;21.25;10.35;;;-4.90;94.70;;;;;;6191843;23;20305;-88
2022/01/25 00:10:26;;;;;;;22.23;10.38;;;-4.90;94.70;;;;;;6217914;23;20335;-89
2022/01/25 00:31:15;;;;;;;22.05;10.50;;;-5.00;94.40;;;;;;6219088;23;20009;-87
2022/01/25 00:33:51;;;;;;;22.10;10.00;;;-5.00;94.60;;;;;;6190997;23;20025;-87
2022/01/25 00:36:19;;;;;;;23.27;10.77;;;-5.00;94.50;;;;;;6191166;23;20012;-88
2022/01/25 00:38:45;;;;;;;22.95;10.00;;;-5.00;94.50;;;;;;6191682;23;20001;-89
2022/01/25 00:41:11;;;;;;;24.55;10.52;;;-5.10;94.70;;;;;;6190835;23;20331;-87
2022/01/25 00:43:38;;;;;;;19.85;9.40;;;-5.10;94.60;;;;;;6191731;23;20004;-87
2022/01/25 00:46:08;;;;;;;18.70;9.38;;;-5.10;94.60;;;;;;6217235;23;20046;-87
2022/01/25 00:51:18;;;;;;;20.50;10.43;;;-5.00;94.50;;;;;;6217341;23;20004;-87
2022/01/25 00:53:57;;;;;;;21.60;10.13;;;-5.00;94.60;;;;;;6191078;23;20009;-88
2022/01/25 00:56:31;;;;;;;19.73;9.10;;;-5.10;94.50;;;;;;6190969;23;20087;-88
2022/01/25 00:59:03;;;;;;;19.30;9.65;;;-5.00;94.40;;;;;;6216980;23;20001;-88
2022/01/25 01:01:29;;;;;;;20.17;9.77;;;-5.00;94.50;;;;;;6216853;23;20062;-89
2022/01/25 01:03:55;;;;;;;18.23;9.30;;;-5.00;94.40;;;;;;6190457;23;20009;-89
2022/01/25 01:06:21;;;;;;;20.92;10.30;;;-5.00;94.40;;;;;;6217301;23;20084;-89
2022/01/25 01:08:48;;;;;;;21.92;10.57;;;-5.00;94.40;;;;;;6217236;23;19993;-89
2022/01/25 01:11:20;;;;;;;19.23;9.52;;;-5.00;94.20;;;;;;6190955;23;20000;-90
2022/01/25 01:35:29;;;;;;;22.08;10.10;;;-5.10;94.40;;;;;;6217935;23;20042;-90
2022/01/25 01:47:50;;;;;;;18.08;9.25;;;-5.10;94.70;;;;;;6217208;23;20028;-88
2022/01/25 01:50:28;;;;;;;24.17;9.25;;;-5.10;94.60;;;;;;6190297;23;20378;-89
2022/01/25 01:52:54;;;;;;;20.77;9.80;;;-5.10;94.70;;;;;;6190486;23;20391;-89
2022/01/25 01:55:21;;;;;;;21.67;10.40;;;-5.10;94.60;;;;;;6195954;23;20000;-90
2022/01/25 01:57:49;;;;;;;21.27;10.02;;;-5.10;94.50;;;;;;6203711;23;20055;-91
2022/01/25 02:00:17;;;;;;;19.40;9.65;;;-5.10;94.80;;;;;;6229262;23;20422;-87
2022/01/25 02:02:43;;;;;;;20.73;9.48;;;-5.10;94.60;;;;;;6194636;23;20000;-89
2022/01/25 02:05:09;;;;;;;24.50;10.60;;;-5.10;94.50;;;;;;6191511;23;20011;-89
2022/01/25 02:07:35;;;;;;;20.45;9.65;;;-5.10;94.70;;;;;;6189671;23;20499;-89
2022/01/25 02:10:03;;;;;;;18.95;9.10;;;-5.10;94.60;;;;;;6190176;23;20375;-90
2022/01/25 02:12:28;;;;;;;19.73;8.95;;;-5.10;94.50;;;;;;6190023;23;20005;-90
2022/01/25 02:14:55;;;;;;;19.95;9.60;;;-5.10;94.50;;;;;;6217517;23;20074;-89
2022/01/25 02:23:01;;;;;;;22.02;9.80;;;-5.10;94.60;;;;;;6216812;23;20008;-88
2022/01/25 02:25:27;;;;;;;19.27;9.18;;;-5.10;94.80;;;;;;6216908;23;19996;-89
2022/01/25 02:27:53;;;;;;;22.45;10.25;;;-5.10;94.80;;;;;;6190303;23;20001;-88
2022/01/25 02:30:19;;;;;;;20.30;9.35;;;-5.10;94.80;;;;;;6216850;23;20005;-88
2022/01/25 02:32:45;;;;;;;19.48;8.65;;;-5.20;94.90;;;;;;6190093;23;20379;-89
2022/01/25 02:35:11;;;;;;;19.73;9.95;;;-5.10;94.90;;;;;;6217180;23;20005;-89
2022/01/25 02:37:38;;;;;;;20.35;9.60;;;-5.10;94.90;;;;;;6190616;23;20487;-89
2022/01/25 02:40:05;;;;;;;19.80;9.90;;;-5.20;95.10;;;;;;6216387;23;20420;-89
2022/01/25 02:42:31;;;;;;;19.50;8.48;;;-5.20;95.20;;;;;;6190053;23;20024;-89
2022/01/25 02:44:57;;;;;;;17.20;8.10;;;-5.20;95.20;;;;;;6216373;23;19997;-89
2022/01/25 02:50:07;;;;;;;16.48;7.97;;;-5.10;95.00;;;;;;6216761;23;20011;-89
2022/01/25 02:52:33;;;;;;;20.52;9.13;;;-5.10;95.10;;;;;;6190339;23;20000;-91
2022/01/25 02:54:59;;;;;;;18.00;8.85;;;-5.10;95.00;;;;;;6189716;23;20005;-88
2022/01/25 02:57:25;;;;;;;17.15;8.30;;;-5.10;94.90;;;;;;6215898;23;20012;-90
2022/01/25 02:59:51;;;;;;;16.85;8.02;;;-5.10;95.10;;;;;;6216440;23;20023;-87
2022/01/25 03:02:17;;;;;;;18.98;8.85;;;-5.10;95.10;;;;;;6216529;23;20004;-89
2022/01/25 03:04:43;;;;;;;17.70;9.25;;;-5.00;95.30;;;;;;6216212;23;20012;-89
2022/01/25 03:07:09;;;;;;;18.48;9.40;;;-5.10;95.20;;;;;;6189111;23;20000;-89
2022/01/25 03:09:36;;;;;;;20.70;9.07;;;-5.10;95.20;;;;;;6189963;23;20059;-88
2022/01/25 03:12:05;;;;;;;19.15;8.88;;;-5.10;95.30;;;;;;6189313;23;20004;-89
2022/01/25 03:14:33;;;;;;;16.80;8.68;;;-5.10;95.20;;;;;;6189628;23;20065;-89
2022/01/25 03:22:04;;;;;;;15.32;8.15;;;-5.20;95.50;;;;;;6226619;23;20001;-89
2022/01/25 03:24:29;;;;;;;18.25;9.10;;;-5.20;95.50;;;;;;6216442;23;20375;-90
2022/01/25 03:26:55;;;;;;;18.23;8.85;;;-5.20;95.50;;;;;;6189577;23;20005;-89
2022/01/25 03:29:21;;;;;;;15.90;8.23;;;-5.20;95.60;;;;;;6217409;23;20008;-90
2022/01/25 03:31:47;;;;;;;15.50;7.97;;;-5.20;95.80;;;;;;6217555;23;20059;-89
2022/01/25 03:34:13;;;;;;;19.15;8.75;;;-5.20;95.60;;;;;;6217847;23;20128;-90
2022/01/25 03:36:39;;;;;;;14.60;7.80;;;-5.20;95.50;;;;;;6220572;23;20001;-90
2022/01/25 03:39:06;;;;;;;16.88;8.32;;;-5.20;95.40;;;;;;6190789;23;20005;-90
2022/01/25 03:41:33;;;;;;;18.45;7.63;;;-5.20;95.30;;;;;;6191323;23;20001;-88
2022/01/25 03:43:58;;;;;;;16.50;8.13;;;-5.20;95.40;;;;;;6191044;23;20477;-90
2022/01/25 03:46:35;;;;;;;14.48;7.85;;;-5.20;95.40;;;;;;6191132;23;20004;-90
2022/01/25 03:51:47;;;;;;;16.10;7.47;;;-5.20;95.50;;;;;;6221616;23;20011;-88
2022/01/25 03:54:13;;;;;;;15.98;7.80;;;-5.20;95.80;;;;;;6197078;23;20009;-88
2022/01/25 03:56:39;;;;;;;13.80;6.85;;;-5.20;95.70;;;;;;6196480;23;20079;-87
2022/01/25 03:59:06;;;;;;;13.38;6.75;;;-5.20;95.80;;;;;;6220810;23;20382;-88
2022/01/25 04:01:32;;;;;;;14.27;6.95;;;-5.20;95.60;;;;;;6195707;23;20357;-88
2022/01/25 04:04:01;;;;;;;18.58;7.38;;;-5.20;95.60;;;;;;6217789;23;20007;-88
2022/01/25 04:06:31;;;;;;;14.30;7.38;;;-5.30;95.70;;;;;;6191290;23;20000;-90
2022/01/25 04:08:58;;;;;;;15.25;7.80;;;-5.20;95.50;;;;;;6217781;23;20000;-91
2022/01/25 04:11:24;;;;;;;15.80;8.13;;;-5.30;95.60;;;;;;6192037;23;20009;-90
2022/01/25 04:13:52;;;;;;;14.00;6.88;;;-5.30;95.70;;;;;;6217756;23;20007;-91
2022/01/25 04:16:23;;;;;;;13.98;6.70;;;-5.30;95.90;;;;;;6218004;23;20380;-89
2022/01/25 04:26:55;;;;;;;12.90;6.30;;;-5.30;95.60;;;;;;6217237;23;20084;-88
2022/01/25 04:29:22;;;;;;;13.68;6.53;;;-5.30;95.50;;;;;;6190511;23;20029;-87
2022/01/25 04:31:48;;;;;;;12.20;6.45;;;-5.30;95.50;;;;;;6190709;23;20086;-89
2022/01/25 04:50:04;;;;;;;12.27;6.78;;;-5.50;96.10;;;;;;6217302;23;20008;-92
2022/01/25 04:52:37;;;;;;;14.25;7.18;;;-5.40;96.20;;;;;;6189429;23;20287;-88
2022/01/25 04:55:16;;;;;;;13.00;6.28;;;-5.50;96.20;;;;;;6217451;23;20400;-89
2022/01/25 04:57:51;;;;;;;11.65;6.20;;;-5.40;96.30;;;;;;6190957;23;20004;-87
2022/01/25 05:00:20;;;;;;;10.05;5.40;;;-5.40;96.20;;;;;;6216696;23;20000;-89
2022/01/25 05:05:31;;;;;;;10.73;5.57;;;-5.40;95.90;;;;;;6217258;23;20268;-87
2022/01/25 05:08:07;;;;;;;10.02;5.25;;;-5.40;95.80;;;;;;6190470;23;20008;-89
2022/01/25 05:10:44;;;;;;;10.65;5.38;;;-5.30;95.80;;;;;;6190313;23;20083;-88
2022/01/25 05:18:15;;;;;;;12.00;5.85;;;-5.30;95.90;;;;;;6227792;23;19997;-87
2022/01/25 05:23:26;;;;;;;10.82;5.53;;;-5.30;95.70;;;;;;6216362;23;20047;-87
2022/01/25 05:25:53;;;;;;;12.55;6.35;;;-5.30;95.80;;;;;;6189326;23;20000;-88
2022/01/25 05:28:19;;;;;;;12.50;6.30;;;-5.30;95.90;;;;;;6189392;23;20008;-88
2022/01/25 05:30:45;;;;;;;13.65;6.32;;;-5.20;96.00;;;;;;6189514;23;20043;-90
2022/01/25 05:33:10;;;;;;;11.20;5.97;;;-5.30;95.90;;;;;;6217483;23;20442;-89
2022/01/25 05:35:37;;;;;;;9.98;5.50;;;-5.20;96.00;;;;;;6217552;23;20004;-89
2022/01/25 05:38:04;;;;;;;12.27;5.95;;;-5.20;96.00;;;;;;6195982;23;20005;-87
2022/01/25 05:40:49;;;;;;;11.73;6.25;;;-5.20;95.90;;;;;;6200145;23;20072;-89
2022/01/25 05:48:11;;;;;;;10.80;5.53;;;-5.30;95.50;;;;;;6216838;23;20082;-91
2022/01/25 05:50:37;;;;;;;11.10;6.10;;;-5.30;95.50;;;;;;6216021;23;20007;-88
2022/01/25 05:53:03;;;;;;;11.15;5.82;;;-5.20;95.70;;;;;;6188981;23;20035;-89
2022/01/25 05:55:29;;;;;;;12.43;6.47;;;-5.30;95.70;;;;;;6190128;23;20010;-89
2022/01/25 05:57:55;;;;;;;12.70;7.18;;;-5.20;95.70;;;;;;6216542;23;20427;-88
2022/01/25 06:00:21;;;;;;;12.35;6.47;;;-5.20;95.40;;;;;;6216662;23;20031;-89
2022/01/25 06:02:47;;;;;;;11.23;6.28;;;-5.30;95.10;;;;;;6188907;23;20430;-89
2022/01/25 06:05:13;;;;;;;11.80;6.20;;;-5.30;95.10;;;;;;6183542;23;19997;-89
2022/01/25 06:07:39;;;;;;;13.20;6.35;;;-5.30;95.10;;;;;;6211508;23;20004;-88
2022/01/25 06:10:06;;;;;;;14.45;7.50;;;-5.30;95.20;;;;;;6182996;23;20411;-89
2022/01/25 06:12:32;;;;;;;13.70;7.10;;;-5.30;95.10;;;;;;6158203;23;20470;-87
2022/01/25 06:14:57;;;;;;;12.52;6.07;;;-5.30;95.20;;;;;;6185893;23;20001;-89
2022/01/25 06:17:23;;;;;;;110.72;43.97;;;-5.30;95.10;;;;;;6212847;23;20628;-84
2022/01/25 06:19:49;;;;;;;32.50;13.48;;;-5.30;95.20;;;;;;6210774;23;20037;-85
2022/01/25 06:22:15;;;;;;;22.42;10.00;;;-5.20;94.90;;;;;;6185607;23;20001;-87
2022/01/25 06:24:42;;;;;;;18.80;8.25;;;-5.20;94.80;;;;;;6210005;23;20447;-88
2022/01/25 06:27:07;;;;;;;14.93;7.93;;;-5.10;94.90;;;;;;6183476;23;20058;-86
2022/01/25 06:29:36;;;;;;;16.08;7.60;;;-5.10;95.00;;;;;;6210698;23;20332;-84
2022/01/25 06:32:02;;;;;;;12.60;7.07;;;-5.10;94.70;;;;;;6210667;23;20454;-84
2022/01/25 06:34:28;;;;;;;14.70;7.07;;;-5.10;94.00;;;;;;6209728;23;20008;-86
2022/01/25 06:36:53;;;;;;;13.38;7.45;;;-5.10;94.00;;;;;;6211352;23;20420;-86
2022/01/25 06:39:19;;;;;;;14.38;7.13;;;-5.00;93.90;;;;;;6184781;23;20012;-88
2022/01/25 06:41:45;;;;;;;15.63;7.57;;;-5.00;93.90;;;;;;6182829;23;20031;-89
2022/01/25 06:44:11;;;;;;;14.05;7.55;;;-5.10;93.30;;;;;;6184879;23;20368;-88
2022/01/25 06:46:36;;;;;;;15.07;7.68;;;-5.10;93.20;;;;;;6184745;23;20005;-90
2022/01/25 06:49:03;;;;;;;37.00;16.23;;;-5.10;93.30;;;;;;6183615;23;20417;-87
2022/01/25 06:51:29;;;;;;;27.17;12.43;;;-5.10;93.80;;;;;;6184776;23;20043;-93
2022/01/25 06:53:55;;;;;;;21.25;9.77;;;-5.00;94.00;;;;;;6210244;23;20427;-90
2022/01/25 06:56:21;;;;;;;20.35;9.10;;;-5.00;93.60;;;;;;6183675;23;20000;-86
2022/01/25 06:58:48;;;;;;;19.08;8.48;;;-5.00;93.10;;;;;;6184550;23;20000;-88
2022/01/25 07:01:17;;;;;;;15.40;7.53;;;-5.00;92.80;;;;;;6184065;23;20055;-88
2022/01/25 07:03:44;;;;;;;15.70;8.05;;;-5.00;92.50;;;;;;6184126;23;20055;-88
2022/01/25 07:06:10;;;;;;;14.82;6.93;;;-5.00;92.70;;;;;;6186354;23;20005;-86
2022/01/25 07:08:35;;;;;;;14.73;7.78;;;-4.90;92.90;;;;;;6217264;23;20011;-91
2022/01/25 07:11:04;;;;;;;16.45;7.45;;;-4.90;92.40;;;;;;6185772;23;20001;-88
2022/01/25 07:13:32;;;;;;;29.02;12.88;;;-4.80;92.30;;;;;;6187920;23;20013;-90
2022/01/25 07:15:58;;;;;;;22.13;10.68;;;-4.90;92.30;;;;;;6213349;23;20005;-86
2022/01/25 07:18:23;;;;;;;20.17;10.07;;;-4.80;92.30;;;;;;6186131;23;20012;-92
2022/01/25 07:20:49;;;;;;;19.65;7.93;;;-4.80;92.10;;;;;;6213901;23;20000;-91
2022/01/25 07:23:15;;;;;;;17.65;8.20;;;-4.80;92.10;;;;;;6185673;23;20107;-93
2022/01/25 07:25:41;;;;;;;14.77;7.43;;;-4.70;91.70;;;;;;6184326;23;20027;-93
2022/01/25 07:28:09;;;;;;;15.35;6.85;;;-4.70;91.80;;;;;;6164043;23;20008;-91
2022/01/25 07:30:35;;;;;;;15.98;7.50;;;-4.70;91.30;;;;;;6184519;23;20025;-89
2022/01/25 07:33:05;;;;;;;14.35;7.47;;;-4.70;90.70;;;;;;6187179;23;20431;-91
2022/01/25 07:35:32;;;;;;;13.53;7.13;;;-4.70;90.60;;;;;;6181983;23;20067;-88
2022/01/25 07:37:58;;;;;;;11.57;6.28;;;-4.70;90.60;;;;;;6208922;23;20059;-91
2022/01/25 07:40:24;;;;;;;15.80;7.25;;;-4.60;91.00;;;;;;6207461;23;20012;-88
2022/01/25 07:42:49;;;;;;;13.63;7.20;;;-4.60;90.20;;;;;;6208657;23;19993;-89
2022/01/25 07:45:15;;;;;;;14.27;7.00;;;-4.60;90.60;;;;;;6182277;23;20000;-90
2022/01/25 07:47:41;;;;;;;14.60;7.35;;;-4.50;90.40;;;;;;6207648;23;20001;-89
2022/01/25 07:50:08;;;;;;;12.80;6.95;;;-4.40;90.10;;;;;;6190847;23;20000;-90
2022/01/25 07:52:34;;;;;;;15.30;7.50;;;-4.40;89.60;;;;;;6210283;23;20155;-90
2022/01/25 07:55:00;;;;;;;13.82;7.18;;;-4.50;88.40;;;;;;6183164;23;20420;-91
2022/01/25 07:57:26;;;;;;;16.52;7.78;;;-4.50;88.30;;;;;;6186147;23;20021;-91
2022/01/25 07:59:52;;;;;;;16.55;7.90;;;-4.50;87.40;;;;;;6213358;23;20055;-93
2022/01/25 08:02:19;;;;;;;16.98;7.43;;;-4.60;88.10;;;;;;6185372;23;20001;-92
2022/01/25 08:04:45;;;;;;;13.55;6.93;;;-4.60;88.40;;;;;;6185066;23;20004;-91
2022/01/25 08:07:11;;;;;;;14.48;7.78;;;-4.50;88.80;;;;;;6187862;23;20104;-91
2022/01/25 08:09:39;;;;;;;14.55;7.18;;;-4.50;89.00;;;;;;6211470;23;20001;-92
2022/01/25 08:12:05;;;;;;;17.08;8.40;;;-4.40;88.40;;;;;;6185368;23;20008;-88
2022/01/25 08:14:31;;;;;;;17.42;7.90;;;-4.40;87.90;;;;;;6186970;23;20013;-91
2022/01/25 08:16:57;;;;;;;15.40;7.82;;;-3.90;86.90;;;;;;6185423;23;20393;-92
2022/01/25 08:19:22;;;;;;;16.30;8.63;;;-4.40;86.20;;;;;;6211965;23;20079;-91
2022/01/25 08:21:49;;;;;;;14.98;7.63;;;-4.40;86.20;;;;;;6186513;23;20088;-92
2022/01/25 08:24:18;;;;;;;15.55;7.55;;;-4.40;86.50;;;;;;6185421;23;20008;-93
2022/01/25 08:26:45;;;;;;;13.43;6.80;;;-4.50;86.30;;;;;;6184923;23;20024;-92
2022/01/25 08:29:10;;;;;;;13.70;6.55;;;-4.40;87.00;;;;;;6212878;23;20442;-93
2022/01/25 08:31:38;;;;;;;15.55;7.18;;;-4.40;87.50;;;;;;6212114;23;20000;-93
2022/01/25 08:34:05;;;;;;;13.68;6.90;;;-4.30;87.30;;;;;;6184788;23;20063;-92
2022/01/25 08:36:30;;;;;;;14.25;7.18;;;-4.20;87.00;;;;;;6212376;23;19997;-91
2022/01/25 08:38:56;;;;;;;19.10;8.43;;;-4.10;87.10;;;;;;6211822;23;20026;-91
2022/01/25 08:41:22;;;;;;;18.63;8.55;;;-4.10;85.80;;;;;;6185308;23;20038;-90
2022/01/25 08:43:48;;;;;;;15.73;7.80;;;-4.10;85.30;;;;;;6185966;23;20087;-90
2022/01/25 08:46:14;;;;;;;16.88;7.40;;;-4.10;86.10;;;;;;6212311;23;20019;-92
2022/01/25 08:48:40;;;;;;;16.42;7.78;;;-4.10;84.70;;;;;;6185312;23;20001;-89
2022/01/25 08:51:07;;;;;;;13.60;7.75;;;-4.10;84.90;;;;;;6186371;23;20008;-91
2022/01/25 08:53:35;;;;;;;18.05;7.55;;;-4.10;84.20;;;;;;6212356;23;20008;-90
2022/01/25 08:56:01;;;;;;;13.18;6.90;;;-4.10;84.10;;;;;;6211977;23;20005;-91
2022/01/25 08:58:27;;;;;;;11.68;6.15;;;-4.20;84.30;;;;;;6185886;23;20008;-93
2022/01/25 09:00:53;;;;;;;13.93;6.53;;;-4.10;84.90;;;;;;6184206;23;20379;-86
2022/01/25 09:03:18;;;;;;;17.02;7.43;;;-4.10;84.60;;;;;;6184131;23;20412;-90
2022/01/25 09:05:44;;;;;;;14.85;6.93;;;-4.00;85.10;;;;;;6185281;23;20008;-88
2022/01/25 09:08:21;;;;;;;16.67;7.95;;;-3.90;84.30;;;;;;6214540;23;20001;-90
2022/01/25 09:10:57;;;;;;;16.25;7.68;;;-3.90;84.10;;;;;;6188162;23;20132;-90
2022/01/25 09:13:26;;;;;;;15.30;7.38;;;-4.00;82.90;;;;;;6188357;23;20019;-93
2022/01/25 09:15:52;;;;;;;15.30;7.90;;;-3.90;83.50;;;;;;6197769;23;20011;-90
2022/01/25 09:18:18;;;;;;;17.88;8.27;;;-3.90;83.50;;;;;;6211309;23;19999;-91
2022/01/25 09:20:44;;;;;;;18.05;8.35;;;-3.90;83.30;;;;;;6238683;23;19992;-90
2022/01/25 09:23:10;;;;;;;15.40;7.93;;;-3.90;83.20;;;;;;6232700;23;20019;-91
2022/01/25 09:25:36;;;;;;;14.13;7.60;;;-3.90;83.00;;;;;;6210372;23;20052;-92
2022/01/25 09:28:03;;;;;;;16.45;7.57;;;-3.80;83.60;;;;;;6214379;23;20009;-90
2022/01/25 09:30:29;;;;;;;15.07;7.30;;;-3.80;83.90;;;;;;6184847;23;20017;-90
2022/01/25 09:32:56;;;;;;;12.73;6.90;;;-3.60;83.80;;;;;;6188262;23;20108;-90
2022/01/25 09:35:21;;;;;;;15.35;7.82;;;-3.50;83.90;;;;;;6214354;23;19997;-91
2022/01/25 09:37:47;;;;;;;13.90;7.63;;;-3.50;82.60;;;;;;6183175;23;20000;-90
2022/01/25 09:40:14;;;;;;;15.93;7.45;;;-3.40;82.60;;;;;;6185875;23;20000;-90
2022/01/25 09:42:40;;;;;;;17.25;7.63;;;-3.40;82.70;;;;;;6211571;23;19997;-91
2022/01/25 09:45:07;;;;;;;15.27;7.63;;;-3.40;81.90;;;;;;6210877;23;20007;-90
2022/01/25 09:47:33;;;;;;;17.25;8.00;;;-3.40;81.50;;;;;;6184962;23;20391;-91
2022/01/25 09:49:58;;;;;;;13.80;7.57;;;-3.40;81.50;;;;;;6210087;23;19996;-91
2022/01/25 09:52:25;;;;;;;14.07;7.55;;;-3.50;81.40;;;;;;6210540;23;19996;-90
2022/01/25 09:54:55;;;;;;;15.85;7.95;;;-3.50;81.90;;;;;;6184924;23;20039;-93
2022/01/25 09:57:22;;;;;;;14.38;7.60;;;-3.50;81.70;;;;;;6184386;23;20016;-90
2022/01/25 09:59:48;;;;;;;14.93;7.53;;;-3.50;81.60;;;;;;6188686;23;20415;-91
2022/01/25 10:02:47;;;;;;;15.88;7.80;;;-3.50;82.30;;;;;;6213325;23;20004;-89
2022/01/25 10:05:26;;;;;;;12.93;6.90;;;-3.40;81.00;;;;;;6185945;23;20032;-89
2022/01/25 10:08:05;;;;;;;11.75;6.03;;;-3.30;81.90;;;;;;6232019;23;19992;-92
2022/01/25 10:10:33;;;;;;;15.27;7.40;;;-3.20;81.70;;;;;;6198235;23;20008;-90
2022/01/25 10:13:51;;;;;;;14.98;7.57;;;-3.20;81.20;;;;;;6218178;23;20016;-90
2022/01/25 10:16:19;;;;;;;13.38;6.72;;;-3.10;80.50;;;;;;6189809;23;20008;-89
2022/01/25 10:18:56;;;;;;;16.80;8.15;;;-3.00;81.20;;;;;;6198987;23;20028;-91
2022/01/25 10:21:54;;;;;;;17.20;8.85;;;-3.00;80.20;;;;;;6203985;23;20011;-91
2022/01/25 10:24:20;;;;;;;16.13;7.95;;;-3.10;78.60;;;;;;6217652;23;20010;-92
2022/01/25 10:26:54;;;;;;;16.50;8.02;;;-3.20;80.00;;;;;;6185348;23;20080;-91
2022/01/25 10:29:20;;;;;;;17.33;8.20;;;-3.20;80.20;;;;;;6187041;23;20089;-90
2022/01/25 10:31:49;;;;;;;17.98;8.40;;;-3.20;80.70;;;;;;6210875;23;19997;-92
2022/01/25 10:34:20;;;;;;;17.75;8.77;;;-3.20;80.60;;;;;;6210247;23;20009;-90
2022/01/25 10:36:48;;;;;;;16.40;8.23;;;-3.20;80.00;;;;;;6211278;23;20523;-91
2022/01/25 10:39:25;;;;;;;14.30;7.55;;;-3.20;80.30;;;;;;6187069;23;20104;-91
2022/01/25 10:41:51;;;;;;;15.00;7.50;;;-3.20;80.60;;;;;;6186716;23;20032;-92
2022/01/25 10:44:17;;;;;;;16.90;7.25;;;-3.20;80.80;;;;;;6212022;23;20004;-90
2022/01/25 10:46:43;;;;;;;15.30;7.32;;;-3.10;80.70;;;;;;6185715;23;20368;-92
2022/01/25 10:49:12;;;;;;;15.05;8.23;;;-3.10;80.60;;;;;;6214598;23;19997;-93
2022/01/25 10:51:38;;;;;;;18.17;9.32;;;-3.10;80.30;;;;;;6186646;23;20000;-91
2022/01/25 10:54:12;;;;;;;14.57;7.60;;;-3.10;80.10;;;;;;6213900;23;20016;-91
2022/01/25 10:56:41;;;;;;;18.80;8.77;;;-3.20;79.60;;;;;;6186057;23;20008;-89
2022/01/25 10:59:09;;;;;;;14.38;7.35;;;-3.20;80.00;;;;;;6186662;23;20009;-92
2022/01/25 11:01:43;;;;;;;13.93;7.53;;;-3.20;80.30;;;;;;6212249;23;20000;-91
2022/01/25 11:04:13;;;;;;;14.73;7.13;;;-3.10;80.80;;;;;;6186465;23;20005;-91
2022/01/25 11:06:40;;;;;;;13.02;6.10;;;-3.10;79.90;;;;;;6185132;23;20059;-91
2022/01/25 11:09:09;;;;;;;12.82;6.68;;;-3.10;80.20;;;;;;6186652;23;20004;-91
2022/01/25 11:11:40;;;;;;;11.48;6.43;;;-3.00;79.90;;;;;;6186520;23;20004;-90
2022/01/25 11:16:53;;;;;;;12.90;6.85;;;-3.00;79.40;;;;;;6213330;23;20328;-93
2022/01/25 11:19:21;;;;;;;14.05;7.60;;;-3.00;78.90;;;;;;6212774;23;20011;-94
2022/01/25 11:21:48;;;;;;;13.73;7.63;;;-3.00;78.80;;;;;;6186658;23;20347;-92
2022/01/25 11:24:16;;;;;;;12.98;6.90;;;-3.10;78.60;;;;;;6212328;23;20000;-90
2022/01/25 11:26:43;;;;;;;14.77;7.40;;;-3.10;78.90;;;;;;6212918;23;20033;-91
2022/01/25 11:29:10;;;;;;;15.85;7.40;;;-3.10;79.20;;;;;;6185684;23;20494;-91
2022/01/25 11:31:40;;;;;;;11.23;6.50;;;-3.20;79.60;;;;;;6212649;23;19996;-89
2022/01/25 11:34:09;;;;;;;10.40;5.88;;;-3.10;79.80;;;;;;6186457;23;20463;-94
2022/01/25 11:37:02;;;;;;;12.43;6.00;;;-3.10;79.50;;;;;;6186605;23;20032;-92
2022/01/25 11:39:30;;;;;;;10.63;5.80;;;-3.00;79.20;;;;;;6212632;23;19993;-92
2022/01/25 11:42:14;;;;;;;12.30;6.57;;;-3.00;78.80;;;;;;6186835;23;20323;-91
2022/01/25 11:44:58;;;;;;;11.68;6.43;;;-3.00;78.50;;;;;;6186053;23;20016;-90
2022/01/25 11:47:42;;;;;;;13.55;7.57;;;-3.00;78.90;;;;;;6188041;23;20005;-91
2022/01/25 11:50:14;;;;;;;13.48;6.95;;;-2.90;78.60;;;;;;6187227;23;20732;-92
2022/01/25 11:53:23;;;;;;;13.35;7.30;;;-2.90;78.70;;;;;;6186907;23;19996;-93
2022/01/25 11:55:53;;;;;;;12.82;6.57;;;-3.00;78.20;;;;;;6212835;23;20008;-90
2022/01/25 11:58:21;;;;;;;20.63;9.50;;;-3.00;78.80;;;;;;6184986;23;19997;-92
2022/01/25 12:00:50;;;;;;;15.52;8.65;;;-2.90;78.60;;;;;;6213158;23;20004;-90
2022/01/25 12:03:22;;;;;;;19.80;9.90;;;-2.90;78.40;;;;;;6212517;23;20076;-91
2022/01/25 12:06:00;;;;;;;19.38;9.93;;;-3.00;78.30;;;;;;6184820;23;20067;-90
2022/01/25 12:08:53;;;;;;;19.02;9.80;;;-3.00;78.30;;;;;;6212726;23;20462;-90
2022/01/25 12:11:40;;;;;;;16.65;8.65;;;-3.00;78.70;;;;;;6162797;23;20001;-91
2022/01/25 12:14:16;;;;;;;17.15;7.90;;;-3.00;78.40;;;;;;6185292;23;20031;-93
2022/01/25 12:16:44;;;;;;;14.02;7.15;;;-3.10;78.30;;;;;;6186257;23;20012;-90
2022/01/25 12:19:15;;;;;;;14.80;7.55;;;-3.10;78.80;;;;;;6185060;23;20001;-89
2022/01/25 12:21:48;;;;;;;;;;;-3.00;79.40;;;;;;6185888;23;20304;-90
2022/01/25 12:24:28;;;;;;;11.93;6.75;;;-3.10;77.50;;;;;;6185658;23;19899;-90
2022/01/25 12:33:17;;;;;;;12.75;6.45;;;-3.10;78.80;;;;;;6143420;23;20069;-90
2022/01/25 12:35:52;;;;;;;11.35;6.50;;;-3.10;78.60;;;;;;6185633;23;20004;-91
2022/01/25 12:38:31;;;;;;;15.00;7.28;;;-3.20;78.80;;;;;;6212910;23;20254;-89
2022/01/25 12:41:16;;;;;;;16.35;8.27;;;-3.20;79.20;;;;;;6212320;23;19996;-90
2022/01/25 12:43:47;;;;;;;13.68;6.97;;;-3.20;79.20;;;;;;6211486;23;20008;-90
2022/01/25 12:46:27;;;;;;;13.43;6.95;;;-3.20;78.90;;;;;;6185156;23;20001;-87
2022/01/25 12:49:04;;;;;;;13.18;7.38;;;-3.20;78.50;;;;;;6184004;23;20008;-88
2022/01/25 12:51:32;;;;;;;15.15;7.88;;;-3.30;79.10;;;;;;6211261;23;20004;-91
2022/01/25 12:54:03;;;;;;;16.00;8.43;;;-3.30;78.80;;;;;;6186339;23;20072;-89
2022/01/25 12:56:34;;;;;;;15.73;8.18;;;-3.30;79.20;;;;;;6187303;23;20070;-91
2022/01/25 12:59:09;;;;;;;15.13;7.65;;;-3.30;79.00;;;;;;6191595;23;20379;-90
2022/01/25 13:01:38;;;;;;;19.50;9.55;;;-3.30;79.10;;;;;;6211873;23;20024;-90
2022/01/25 13:04:07;;;;;;;16.08;8.35;;;-3.40;78.30;;;;;;6190735;23;20000;-89
2022/01/25 13:06:35;;;;;;;17.55;8.18;;;-3.40;79.00;;;;;;6194776;23;20001;-89
2022/01/25 13:09:18;;;;;;;15.13;7.05;;;-3.40;78.80;;;;;;6236089;23;20290;-92
2022/01/25 13:17:16;;;;;;;16.05;7.95;;;-3.50;78.50;;;;;;6212325;23;20000;-88
2022/01/25 13:19:51;;;;;;;13.88;7.53;;;-3.50;78.60;;;;;;6183831;23;20012;-88
2022/01/25 13:22:20;;;;;;;13.30;6.88;;;-3.50;78.60;;;;;;6211198;23;20000;-88
2022/01/25 13:25:10;;;;;;;12.20;6.57;;;-3.60;78.10;;;;;;6186026;23;20012;-88
2022/01/25 13:27:48;;;;;;;14.95;7.43;;;-3.50;78.40;;;;;;6185821;23;20007;-91
2022/01/25 13:33:03;;;;;;;12.98;6.63;;;-3.70;78.90;;;;;;6220696;23;20057;-91
2022/01/25 13:35:35;;;;;;;17.90;8.27;;;-3.70;79.30;;;;;;6222321;23;20004;-92
2022/01/25 13:38:09;;;;;;;17.02;8.20;;;-3.60;79.20;;;;;;6190162;23;20005;-88
2022/01/25 13:40:49;;;;;;;21.17;9.93;;;-3.30;81.70;;;;;;6184704;23;20034;-88
2022/01/25 13:46:20;;;;;;;15.75;8.45;;;-2.20;78.50;;;;;;6215006;23;20055;-86
2022/01/25 13:48:47;;;;;;;14.70;7.88;;;-1.70;77.00;;;;;;6188180;23;20084;-89
2022/01/25 13:51:21;;;;;;;12.20;7.00;;;-1.10;76.10;;;;;;6186992;23;20408;-92
2022/01/25 13:53:56;;;;;;;13.27;7.72;;;-0.60;75.20;;;;;;6183083;23;20101;-92
2022/01/25 13:56:25;;;;;;;15.15;8.10;;;-0.10;73.30;;;;;;6184298;23;20055;-92
2022/01/25 13:58:52;;;;;;;12.05;6.90;;;0.20;71.40;;;;;;6212004;23;20047;-89
2022/01/25 14:01:20;;;;;;;11.43;6.72;;;0.40;70.50;;;;;;6210212;23;20001;-87
2022/01/25 14:03:55;;;;;;;12.93;6.88;;;0.40;68.60;;;;;;6181676;23;20494;-87
2022/01/25 14:06:31;;;;;;;14.50;8.10;;;0.30;68.10;;;;;;6208638;23;20008;-86
2022/01/25 14:09:14;;;;;;;11.85;6.25;;;0.10;66.70;;;;;;6212762;23;19997;-87
2022/01/25 14:21:40;;;;;;;13.38;7.63;;;-1.20;67.90;;;;;;6209427;23;20065;-92
2022/01/25 14:25:34;;;;;;;14.07;6.22;;;-2.80;70.40;;;;;;6213422;23;20001;-88
2022/01/25 14:28:02;;;;;;;13.30;5.90;;;-3.20;71.20;;;;;;6183545;23;20011;-89
2022/01/25 14:30:34;;;;;;;15.23;6.80;;;-3.60;71.90;;;;;;6181893;23;20067;-90
2022/01/25 14:33:10;;;;;;;11.15;5.97;;;-3.80;72.60;;;;;;6182332;23;20000;-91
2022/01/25 14:35:51;;;;;;;16.50;7.50;;;-4.10;73.00;;;;;;6183194;23;20088;-90
2022/01/25 14:38:22;;;;;;;12.82;6.43;;;-4.40;74.10;;;;;;6181672;23;20032;-90
2022/01/25 14:41:15;;;;;;;12.10;5.97;;;-4.70;74.30;;;;;;6181957;23;20005;-91
2022/01/25 14:43:48;;;;;;;10.80;5.90;;;-4.90;75.60;;;;;;6210150;23;20005;-88
2022/01/25 14:46:25;;;;;;;14.07;7.63;;;-5.10;75.50;;;;;;6182928;23;20001;-86
2022/01/25 14:49:18;;;;;;;17.27;8.13;;;-5.30;75.90;;;;;;6182285;23;20242;-88
2022/01/25 14:51:47;;;;;;;15.82;7.88;;;-5.40;77.00;;;;;;6166180;23;20004;-89
2022/01/25 14:54:16;;;;;;;18.38;8.23;;;-5.50;76.70;;;;;;6209923;23;20009;-88
2022/01/25 14:56:48;;;;;;;13.80;7.40;;;-5.60;77.20;;;;;;6183893;23;20004;-89
2022/01/25 15:02:07;;;;;;;15.95;8.18;;;-5.80;77.80;;;;;;6209184;23;20004;-90
2022/01/25 15:04:39;;;;;;;14.30;7.75;;;-5.80;77.70;;;;;;6185920;23;20001;-89
2022/01/25 15:07:25;;;;;;;17.27;8.95;;;-5.90;77.80;;;;;;6181735;23;20253;-89
2022/01/25 15:10:04;;;;;;;14.93;8.32;;;-5.90;78.20;;;;;;6185819;23;20005;-93
2022/01/25 15:12:41;;;;;;;14.27;7.50;;;-6.00;78.70;;;;;;6183420;23;20020;-90
2022/01/25 15:15:14;;;;;;;11.52;6.47;;;-6.00;78.30;;;;;;6182287;23;20009;-90
2022/01/25 15:17:40;;;;;;;13.38;6.90;;;-6.10;78.40;;;;;;6183543;23;20741;-89